sensor_id;sensor_type;location;lat;lon;timestamp;P1;durP1;ratioP1;P2;durP2;ratioP2
76693;SDS011;65625;52.136;5.424;2023-02-22T00:01:13;25.85;;;10.38;;
76693;SDS011;65625;52.136;5.424;2023-02-22T00:03:53;26.48;;;10.00;;
76693;SDS011;65625;52.136;5.424;2023-02-22T00:06:20;25.60;;;9.90;;
76693;SDS011;65625;52.136;5.424;2023-02-22T00:08:50;26.05;;;9.88;;
76693;SDS011;65625;52.136;5.424;2023-02-22T00:11:18;25.85;;;9.63;;
76693;SDS011;65625;52.136;5.424;2023-02-22T00:13:46;26.77;;;9.43;;
76693;SDS011;65625;52.136;5.424;2023-02-22T00:16:13;23.38;;;8.95;;
76693;SDS011;65625;52.136;5.424;2023-02-22T00:18:41;24.50;;;8.98;;
76693;SDS011;65625;52.136;5.424;2023-02-22T00:21:09;24.90;;;10.27;;
76693;SDS011;65625;52.136;5.424;2023-02-22T00:23:39;23.35;;;9.30;;
76693;SDS011;65625;52.136;5.424;2023-02-22T00:26:12;23.27;;;8.73;;
76693;SDS011;65625;52.136;5.424;2023-02-22T00:28:45;25.98;;;10.48;;
76693;SDS011;65625;52.136;5.424;2023-02-22T00:31:19;25.38;;;9.25;;
76693;SDS011;65625;52.136;5.424;2023-02-22T00:33:48;23.02;;;8.90;;
76693;SDS011;65625;52.136;5.424;2023-02-22T00:36:15;24.42;;;9.15;;
76693;SDS011;65625;52.136;5.424;2023-02-22T00:38:42;23.73;;;9.73;;
76693;SDS011;65625;52.136;5.424;2023-02-22T00:41:08;22.75;;;8.85;;
76693;SDS011;65625;52.136;5.424;2023-02-22T00:43:36;21.30;;;8.63;;
76693;SDS011;65625;52.136;5.424;2023-02-22T00:46:03;24.77;;;9.00;;
76693;SDS011;65625;52.136;5.424;2023-02-22T00:48:30;22.58;;;9.35;;
76693;SDS011;65625;52.136;5.424;2023-02-22T00:50:56;25.90;;;9.60;;
76693;SDS011;65625;52.136;5.424;2023-02-22T00:53:23;24.30;;;8.70;;
76693;SDS011;65625;52.136;5.424;2023-02-22T00:55:51;23.15;;;8.40;;
76693;SDS011;65625;52.136;5.424;2023-02-22T00:58:19;24.05;;;8.48;;
76693;SDS011;65625;52.136;5.424;2023-02-22T01:00:45;21.92;;;8.00;;
76693;SDS011;65625;52.136;5.424;2023-02-22T01:03:13;24.23;;;8.93;;
76693;SDS011;65625;52.136;5.424;2023-02-22T01:05:41;18.23;;;7.85;;
76693;SDS011;65625;52.136;5.424;2023-02-22T01:08:08;21.05;;;8.13;;
76693;SDS011;65625;52.136;5.424;2023-02-22T01:10:37;21.23;;;8.32;;
76693;SDS011;65625;52.136;5.424;2023-02-22T01:13:04;23.45;;;8.40;;
76693;SDS011;65625;52.136;5.424;2023-02-22T01:15:35;20.88;;;9.20;;
76693;SDS011;65625;52.136;5.424;2023-02-22T01:18:04;22.58;;;8.60;;
76693;SDS011;65625;52.136;5.424;2023-02-22T01:20:31;20.50;;;8.77;;
76693;SDS011;65625;52.136;5.424;2023-02-22T01:22:59;20.90;;;8.80;;
76693;SDS011;65625;52.136;5.424;2023-02-22T01:25:29;21.48;;;9.07;;
76693;SDS011;65625;52.136;5.424;2023-02-22T01:27:57;22.00;;;8.75;;
76693;SDS011;65625;52.136;5.424;2023-02-22T01:30:27;20.83;;;8.32;;
76693;SDS011;65625;52.136;5.424;2023-02-22T01:32:55;26.42;;;9.15;;
76693;SDS011;65625;52.136;5.424;2023-02-22T01:35:23;22.10;;;9.13;;
76693;SDS011;65625;52.136;5.424;2023-02-22T01:37:57;18.80;;;9.25;;
76693;SDS011;65625;52.136;5.424;2023-02-22T01:40:26;23.45;;;8.25;;
76693;SDS011;65625;52.136;5.424;2023-02-22T01:43:15;23.10;;;9.63;;
76693;SDS011;65625;52.136;5.424;2023-02-22T01:45:47;21.50;;;8.15;;
76693;SDS011;65625;52.136;5.424;2023-02-22T01:48:34;25.00;;;9.00;;
76693;SDS011;65625;52.136;5.424;2023-02-22T01:51:12;22.90;;;8.75;;
76693;SDS011;65625;52.136;5.424;2023-02-22T01:56:13;22.95;;;8.70;;
76693;SDS011;65625;52.136;5.424;2023-02-22T01:58:42;20.05;;;8.18;;
76693;SDS011;65625;52.136;5.424;2023-02-22T02:01:12;26.45;;;9.75;;
76693;SDS011;65625;52.136;5.424;2023-02-22T02:03:40;21.38;;;9.10;;
76693;SDS011;65625;52.136;5.424;2023-02-22T02:06:08;22.80;;;8.80;;
76693;SDS011;65625;52.136;5.424;2023-02-22T02:08:41;21.73;;;8.57;;
76693;SDS011;65625;52.136;5.424;2023-02-22T02:11:15;23.05;;;8.63;;
76693;SDS011;65625;52.136;5.424;2023-02-22T02:13:45;24.15;;;8.90;;
76693;SDS011;65625;52.136;5.424;2023-02-22T02:16:12;23.35;;;9.43;;
76693;SDS011;65625;52.136;5.424;2023-02-22T02:18:39;19.77;;;8.75;;
76693;SDS011;65625;52.136;5.424;2023-02-22T02:24:35;22.92;;;8.45;;
76693;SDS011;65625;52.136;5.424;2023-02-22T02:27:26;21.33;;;8.18;;
76693;SDS011;65625;52.136;5.424;2023-02-22T02:38:33;22.70;;;8.68;;
76693;SDS011;65625;52.136;5.424;2023-02-22T02:41:26;23.27;;;9.50;;
76693;SDS011;65625;52.136;5.424;2023-02-22T02:44:01;25.63;;;9.57;;
76693;SDS011;65625;52.136;5.424;2023-02-22T02:46:34;25.42;;;9.65;;
76693;SDS011;65625;52.136;5.424;2023-02-22T02:49:10;27.13;;;10.00;;
76693;SDS011;65625;52.136;5.424;2023-02-22T02:51:41;28.05;;;10.30;;
76693;SDS011;65625;52.136;5.424;2023-02-22T02:54:12;25.38;;;10.25;;
76693;SDS011;65625;52.136;5.424;2023-02-22T02:56:40;26.02;;;9.43;;
76693;SDS011;65625;52.136;5.424;2023-02-22T02:59:27;22.30;;;9.07;;
76693;SDS011;65625;52.136;5.424;2023-02-22T03:02:01;26.08;;;10.50;;
76693;SDS011;65625;52.136;5.424;2023-02-22T03:04:47;27.33;;;10.43;;
76693;SDS011;65625;52.136;5.424;2023-02-22T03:13:06;27.55;;;9.90;;
76693;SDS011;65625;52.136;5.424;2023-02-22T03:18:45;30.05;;;11.20;;
76693;SDS011;65625;52.136;5.424;2023-02-22T03:21:28;27.08;;;10.88;;
76693;SDS011;65625;52.136;5.424;2023-02-22T03:24:03;28.85;;;10.77;;
76693;SDS011;65625;52.136;5.424;2023-02-22T03:26:34;29.35;;;11.40;;
76693;SDS011;65625;52.136;5.424;2023-02-22T03:29:13;27.88;;;10.30;;
76693;SDS011;65625;52.136;5.424;2023-02-22T03:31:52;27.63;;;10.43;;
76693;SDS011;65625;52.136;5.424;2023-02-22T03:34:35;30.80;;;10.90;;
76693;SDS011;65625;52.136;5.424;2023-02-22T03:37:13;28.52;;;10.55;;
76693;SDS011;65625;52.136;5.424;2023-02-22T03:39:44;28.13;;;10.13;;
76693;SDS011;65625;52.136;5.424;2023-02-22T03:42:29;29.50;;;11.13;;
76693;SDS011;65625;52.136;5.424;2023-02-22T03:45:02;31.52;;;10.80;;
76693;SDS011;65625;52.136;5.424;2023-02-22T03:47:36;32.10;;;11.38;;
76693;SDS011;65625;52.136;5.424;2023-02-22T03:50:15;32.92;;;11.90;;
76693;SDS011;65625;52.136;5.424;2023-02-22T03:52:43;33.22;;;11.38;;
76693;SDS011;65625;52.136;5.424;2023-02-22T03:55:15;29.20;;;10.30;;
76693;SDS011;65625;52.136;5.424;2023-02-22T03:57:50;29.73;;;10.15;;
76693;SDS011;65625;52.136;5.424;2023-02-22T04:00:21;32.88;;;10.77;;
76693;SDS011;65625;52.136;5.424;2023-02-22T04:02:49;33.25;;;11.55;;
76693;SDS011;65625;52.136;5.424;2023-02-22T04:05:18;33.45;;;12.00;;
76693;SDS011;65625;52.136;5.424;2023-02-22T04:07:46;30.63;;;10.27;;
76693;SDS011;65625;52.136;5.424;2023-02-22T04:10:14;34.45;;;12.18;;
76693;SDS011;65625;52.136;5.424;2023-02-22T04:12:42;32.55;;;12.55;;
76693;SDS011;65625;52.136;5.424;2023-02-22T04:15:11;35.50;;;12.68;;
76693;SDS011;65625;52.136;5.424;2023-02-22T04:17:41;32.70;;;11.98;;
76693;SDS011;65625;52.136;5.424;2023-02-22T04:20:11;32.47;;;11.02;;
76693;SDS011;65625;52.136;5.424;2023-02-22T04:22:51;32.35;;;12.32;;
76693;SDS011;65625;52.136;5.424;2023-02-22T04:25:19;34.85;;;11.15;;
76693;SDS011;65625;52.136;5.424;2023-02-22T04:27:46;34.08;;;10.85;;
76693;SDS011;65625;52.136;5.424;2023-02-22T04:30:15;31.67;;;11.48;;
76693;SDS011;65625;52.136;5.424;2023-02-22T04:35:10;36.30;;;11.50;;
76693;SDS011;65625;52.136;5.424;2023-02-22T04:37:37;33.45;;;11.43;;
76693;SDS011;65625;52.136;5.424;2023-02-22T04:40:05;33.35;;;11.48;;
76693;SDS011;65625;52.136;5.424;2023-02-22T04:42:34;31.50;;;11.35;;
76693;SDS011;65625;52.136;5.424;2023-02-22T04:45:06;33.08;;;11.65;;
76693;SDS011;65625;52.136;5.424;2023-02-22T04:47:34;35.67;;;12.10;;
76693;SDS011;65625;52.136;5.424;2023-02-22T04:50:03;34.92;;;11.13;;
76693;SDS011;65625;52.136;5.424;2023-02-22T04:52:31;28.65;;;10.27;;
76693;SDS011;65625;52.136;5.424;2023-02-22T04:54:58;31.35;;;10.50;;
76693;SDS011;65625;52.136;5.424;2023-02-22T04:57:24;32.17;;;10.95;;
76693;SDS011;65625;52.136;5.424;2023-02-22T04:59:52;34.47;;;10.73;;
76693;SDS011;65625;52.136;5.424;2023-02-22T05:02:21;34.67;;;10.73;;
76693;SDS011;65625;52.136;5.424;2023-02-22T05:04:48;32.13;;;11.05;;
76693;SDS011;65625;52.136;5.424;2023-02-22T05:07:15;31.85;;;10.52;;
76693;SDS011;65625;52.136;5.424;2023-02-22T05:09:42;32.80;;;11.70;;
76693;SDS011;65625;52.136;5.424;2023-02-22T05:12:09;34.05;;;11.23;;
76693;SDS011;65625;52.136;5.424;2023-02-22T05:14:35;38.70;;;12.23;;
76693;SDS011;65625;52.136;5.424;2023-02-22T05:17:02;35.38;;;11.65;;
76693;SDS011;65625;52.136;5.424;2023-02-22T05:19:29;35.15;;;12.27;;
76693;SDS011;65625;52.136;5.424;2023-02-22T05:21:56;34.25;;;12.07;;
76693;SDS011;65625;52.136;5.424;2023-02-22T05:24:23;38.13;;;12.50;;
76693;SDS011;65625;52.136;5.424;2023-02-22T05:26:49;36.97;;;11.93;;
76693;SDS011;65625;52.136;5.424;2023-02-22T05:29:19;35.28;;;11.85;;
76693;SDS011;65625;52.136;5.424;2023-02-22T05:31:46;37.10;;;11.80;;
76693;SDS011;65625;52.136;5.424;2023-02-22T05:34:13;37.50;;;12.02;;
76693;SDS011;65625;52.136;5.424;2023-02-22T05:36:41;41.75;;;12.93;;
76693;SDS011;65625;52.136;5.424;2023-02-22T05:39:07;40.10;;;12.85;;
76693;SDS011;65625;52.136;5.424;2023-02-22T05:41:34;40.15;;;12.18;;
76693;SDS011;65625;52.136;5.424;2023-02-22T05:44:01;46.25;;;13.13;;
76693;SDS011;65625;52.136;5.424;2023-02-22T05:46:28;33.78;;;12.48;;
76693;SDS011;65625;52.136;5.424;2023-02-22T05:48:54;38.20;;;12.05;;
76693;SDS011;65625;52.136;5.424;2023-02-22T05:51:21;40.42;;;13.25;;
76693;SDS011;65625;52.136;5.424;2023-02-22T05:53:48;41.38;;;13.73;;
76693;SDS011;65625;52.136;5.424;2023-02-22T05:58:47;41.10;;;13.23;;
76693;SDS011;65625;52.136;5.424;2023-02-22T06:01:14;36.70;;;11.75;;
76693;SDS011;65625;52.136;5.424;2023-02-22T06:03:41;42.10;;;12.93;;
76693;SDS011;65625;52.136;5.424;2023-02-22T06:06:07;42.75;;;12.30;;
76693;SDS011;65625;52.136;5.424;2023-02-22T06:08:35;43.40;;;13.27;;
76693;SDS011;65625;52.136;5.424;2023-02-22T06:11:02;45.78;;;14.35;;
76693;SDS011;65625;52.136;5.424;2023-02-22T06:13:29;52.22;;;14.30;;
76693;SDS011;65625;52.136;5.424;2023-02-22T06:15:55;46.55;;;13.82;;
76693;SDS011;65625;52.136;5.424;2023-02-22T06:18:22;41.25;;;13.23;;
76693;SDS011;65625;52.136;5.424;2023-02-22T06:20:51;46.03;;;14.52;;
76693;SDS011;65625;52.136;5.424;2023-02-22T06:23:18;47.60;;;14.50;;
76693;SDS011;65625;52.136;5.424;2023-02-22T06:25:44;48.83;;;13.93;;
76693;SDS011;65625;52.136;5.424;2023-02-22T06:28:11;46.72;;;13.38;;
76693;SDS011;65625;52.136;5.424;2023-02-22T06:30:38;48.28;;;15.23;;
76693;SDS011;65625;52.136;5.424;2023-02-22T06:33:06;46.25;;;14.25;;
76693;SDS011;65625;52.136;5.424;2023-02-22T06:35:32;44.53;;;14.38;;
76693;SDS011;65625;52.136;5.424;2023-02-22T06:37:59;43.75;;;13.25;;
76693;SDS011;65625;52.136;5.424;2023-02-22T06:40:25;48.10;;;14.48;;
76693;SDS011;65625;52.136;5.424;2023-02-22T06:42:56;47.45;;;14.15;;
76693;SDS011;65625;52.136;5.424;2023-02-22T06:45:23;38.25;;;12.70;;
76693;SDS011;65625;52.136;5.424;2023-02-22T06:47:50;49.95;;;14.30;;
76693;SDS011;65625;52.136;5.424;2023-02-22T06:52:46;44.05;;;13.20;;
76693;SDS011;65625;52.136;5.424;2023-02-22T06:55:15;49.17;;;15.73;;
76693;SDS011;65625;52.136;5.424;2023-02-22T06:57:43;42.67;;;14.07;;
76693;SDS011;65625;52.136;5.424;2023-02-22T07:00:09;46.30;;;14.27;;
76693;SDS011;65625;52.136;5.424;2023-02-22T07:02:36;45.83;;;13.82;;
76693;SDS011;65625;52.136;5.424;2023-02-22T07:05:03;46.88;;;13.77;;
76693;SDS011;65625;52.136;5.424;2023-02-22T07:07:30;47.60;;;13.07;;
76693;SDS011;65625;52.136;5.424;2023-02-22T07:09:56;47.30;;;14.52;;
76693;SDS011;65625;52.136;5.424;2023-02-22T07:12:23;44.05;;;13.88;;
76693;SDS011;65625;52.136;5.424;2023-02-22T07:14:49;48.13;;;14.05;;
76693;SDS011;65625;52.136;5.424;2023-02-22T07:17:20;49.67;;;15.40;;
76693;SDS011;65625;52.136;5.424;2023-02-22T07:19:47;53.10;;;14.32;;
76693;SDS011;65625;52.136;5.424;2023-02-22T07:22:13;48.05;;;14.40;;
76693;SDS011;65625;52.136;5.424;2023-02-22T07:24:40;56.90;;;14.50;;
76693;SDS011;65625;52.136;5.424;2023-02-22T07:27:06;44.35;;;13.00;;
76693;SDS011;65625;52.136;5.424;2023-02-22T07:29:33;46.95;;;13.90;;
76693;SDS011;65625;52.136;5.424;2023-02-22T07:32:01;44.75;;;13.57;;
76693;SDS011;65625;52.136;5.424;2023-02-22T07:34:28;45.28;;;14.05;;
76693;SDS011;65625;52.136;5.424;2023-02-22T07:36:55;42.50;;;13.50;;
76693;SDS011;65625;52.136;5.424;2023-02-22T07:39:22;49.38;;;13.65;;
76693;SDS011;65625;52.136;5.424;2023-02-22T07:41:48;44.55;;;14.45;;
76693;SDS011;65625;52.136;5.424;2023-02-22T07:44:22;52.17;;;14.95;;
76693;SDS011;65625;52.136;5.424;2023-02-22T07:46:48;42.67;;;13.20;;
76693;SDS011;65625;52.136;5.424;2023-02-22T07:49:15;45.03;;;12.73;;
76693;SDS011;65625;52.136;5.424;2023-02-22T07:51:43;43.75;;;13.60;;
76693;SDS011;65625;52.136;5.424;2023-02-22T07:54:10;44.78;;;13.68;;
76693;SDS011;65625;52.136;5.424;2023-02-22T07:56:36;42.55;;;13.50;;
76693;SDS011;65625;52.136;5.424;2023-02-22T07:59:08;41.90;;;12.85;;
76693;SDS011;65625;52.136;5.424;2023-02-22T08:01:35;41.72;;;13.52;;
76693;SDS011;65625;52.136;5.424;2023-02-22T08:04:02;40.35;;;13.10;;
76693;SDS011;65625;52.136;5.424;2023-02-22T08:06:29;41.95;;;12.25;;
76693;SDS011;65625;52.136;5.424;2023-02-22T08:09:03;40.17;;;13.57;;
76693;SDS011;65625;52.136;5.424;2023-02-22T08:11:32;37.00;;;11.95;;
76693;SDS011;65625;52.136;5.424;2023-02-22T08:13:59;37.60;;;11.27;;
76693;SDS011;65625;52.136;5.424;2023-02-22T08:16:25;36.92;;;11.60;;
76693;SDS011;65625;52.136;5.424;2023-02-22T08:18:52;35.95;;;12.90;;
76693;SDS011;65625;52.136;5.424;2023-02-22T08:21:18;43.05;;;14.00;;
76693;SDS011;65625;52.136;5.424;2023-02-22T08:23:45;40.40;;;13.18;;
76693;SDS011;65625;52.136;5.424;2023-02-22T08:26:16;42.88;;;13.88;;
76693;SDS011;65625;52.136;5.424;2023-02-22T08:28:43;42.13;;;13.23;;
76693;SDS011;65625;52.136;5.424;2023-02-22T08:31:10;35.30;;;12.23;;
76693;SDS011;65625;52.136;5.424;2023-02-22T08:33:40;35.05;;;12.15;;
76693;SDS011;65625;52.136;5.424;2023-02-22T08:36:07;39.33;;;13.38;;
76693;SDS011;65625;52.136;5.424;2023-02-22T08:38:34;36.15;;;12.52;;
76693;SDS011;65625;52.136;5.424;2023-02-22T08:41:00;35.40;;;11.23;;
76693;SDS011;65625;52.136;5.424;2023-02-22T08:43:27;34.13;;;11.73;;
76693;SDS011;65625;52.136;5.424;2023-02-22T08:45:53;38.45;;;12.82;;
76693;SDS011;65625;52.136;5.424;2023-02-22T08:48:23;35.88;;;12.35;;
76693;SDS011;65625;52.136;5.424;2023-02-22T08:50:49;39.63;;;13.18;;
76693;SDS011;65625;52.136;5.424;2023-02-22T08:53:16;34.97;;;11.90;;
76693;SDS011;65625;52.136;5.424;2023-02-22T08:55:43;33.85;;;11.50;;
76693;SDS011;65625;52.136;5.424;2023-02-22T08:58:10;37.38;;;12.20;;
76693;SDS011;65625;52.136;5.424;2023-02-22T09:00:38;31.63;;;11.40;;
76693;SDS011;65625;52.136;5.424;2023-02-22T09:03:07;30.75;;;11.70;;
76693;SDS011;65625;52.136;5.424;2023-02-22T09:05:35;33.15;;;11.65;;
76693;SDS011;65625;52.136;5.424;2023-02-22T09:08:02;30.17;;;11.40;;
76693;SDS011;65625;52.136;5.424;2023-02-22T09:10:29;35.45;;;12.20;;
76693;SDS011;65625;52.136;5.424;2023-02-22T09:12:58;34.45;;;11.38;;
76693;SDS011;65625;52.136;5.424;2023-02-22T09:15:26;32.90;;;12.98;;
76693;SDS011;65625;52.136;5.424;2023-02-22T09:17:53;32.38;;;11.73;;
76693;SDS011;65625;52.136;5.424;2023-02-22T09:20:21;33.42;;;12.18;;
76693;SDS011;65625;52.136;5.424;2023-02-22T09:22:49;31.50;;;11.15;;
76693;SDS011;65625;52.136;5.424;2023-02-22T09:25:16;31.50;;;11.93;;
76693;SDS011;65625;52.136;5.424;2023-02-22T09:30:20;30.92;;;11.82;;
76693;SDS011;65625;52.136;5.424;2023-02-22T09:32:52;34.60;;;12.43;;
76693;SDS011;65625;52.136;5.424;2023-02-22T09:35:21;31.55;;;12.73;;
76693;SDS011;65625;52.136;5.424;2023-02-22T09:37:55;36.03;;;12.80;;
76693;SDS011;65625;52.136;5.424;2023-02-22T09:40:23;34.78;;;12.20;;
76693;SDS011;65625;52.136;5.424;2023-02-22T09:43:07;29.58;;;12.38;;
76693;SDS011;65625;52.136;5.424;2023-02-22T09:48:10;29.50;;;11.00;;
76693;SDS011;65625;52.136;5.424;2023-02-22T09:50:47;25.15;;;9.85;;
76693;SDS011;65625;52.136;5.424;2023-02-22T09:53:24;25.02;;;10.50;;
76693;SDS011;65625;52.136;5.424;2023-02-22T09:56:00;21.48;;;9.73;;
76693;SDS011;65625;52.136;5.424;2023-02-22T09:58:32;27.05;;;11.27;;
76693;SDS011;65625;52.136;5.424;2023-02-22T10:03:49;33.15;;;11.70;;
76693;SDS011;65625;52.136;5.424;2023-02-22T10:06:19;24.63;;;11.07;;
76693;SDS011;65625;52.136;5.424;2023-02-22T10:08:48;26.35;;;11.18;;
76693;SDS011;65625;52.136;5.424;2023-02-22T10:14:27;25.33;;;10.25;;
76693;SDS011;65625;52.136;5.424;2023-02-22T10:25:21;26.58;;;10.95;;
76693;SDS011;65625;52.136;5.424;2023-02-22T10:27:53;28.15;;;12.20;;
76693;SDS011;65625;52.136;5.424;2023-02-22T10:30:25;27.85;;;12.02;;
76693;SDS011;65625;52.136;5.424;2023-02-22T10:35:27;26.98;;;11.63;;
76693;SDS011;65625;52.136;5.424;2023-02-22T10:37:59;25.77;;;11.23;;
76693;SDS011;65625;52.136;5.424;2023-02-22T10:40:36;26.05;;;12.10;;
76693;SDS011;65625;52.136;5.424;2023-02-22T10:43:05;30.23;;;12.20;;
76693;SDS011;65625;52.136;5.424;2023-02-22T10:45:36;28.15;;;11.63;;
76693;SDS011;65625;52.136;5.424;2023-02-22T10:48:04;26.83;;;11.50;;
76693;SDS011;65625;52.136;5.424;2023-02-22T10:50:35;28.48;;;12.00;;
76693;SDS011;65625;52.136;5.424;2023-02-22T10:53:06;29.98;;;12.23;;
76693;SDS011;65625;52.136;5.424;2023-02-22T10:55:34;29.83;;;13.10;;
76693;SDS011;65625;52.136;5.424;2023-02-22T10:58:02;30.02;;;11.63;;
76693;SDS011;65625;52.136;5.424;2023-02-22T11:00:33;26.77;;;11.60;;
76693;SDS011;65625;52.136;5.424;2023-02-22T11:03:03;32.65;;;12.15;;
76693;SDS011;65625;52.136;5.424;2023-02-22T11:05:40;28.77;;;12.10;;
76693;SDS011;65625;52.136;5.424;2023-02-22T11:10:46;26.42;;;11.27;;
76693;SDS011;65625;52.136;5.424;2023-02-22T11:15:54;26.27;;;12.80;;
76693;SDS011;65625;52.136;5.424;2023-02-22T11:18:26;27.05;;;11.43;;
76693;SDS011;65625;52.136;5.424;2023-02-22T11:23:28;29.67;;;13.13;;
76693;SDS011;65625;52.136;5.424;2023-02-22T11:26:28;28.63;;;12.25;;
76693;SDS011;65625;52.136;5.424;2023-02-22T11:28:51;30.27;;;12.05;;
76693;SDS011;65625;52.136;5.424;2023-02-22T11:31:25;30.13;;;11.00;;
76693;SDS011;65625;52.136;5.424;2023-02-22T11:33:54;30.95;;;11.93;;
76693;SDS011;65625;52.136;5.424;2023-02-22T11:39:03;28.35;;;11.48;;
76693;SDS011;65625;52.136;5.424;2023-02-22T11:41:31;29.38;;;11.98;;
76693;SDS011;65625;52.136;5.424;2023-02-22T11:44:19;29.05;;;11.40;;
76693;SDS011;65625;52.136;5.424;2023-02-22T11:46:49;26.05;;;11.38;;
76693;SDS011;65625;52.136;5.424;2023-02-22T11:49:16;27.02;;;10.82;;
76693;SDS011;65625;52.136;5.424;2023-02-22T12:03:33;37.05;;;12.77;;
76693;SDS011;65625;52.136;5.424;2023-02-22T12:06:08;30.85;;;11.75;;
76693;SDS011;65625;52.136;5.424;2023-02-22T12:11:26;30.45;;;11.77;;
76693;SDS011;65625;52.136;5.424;2023-02-22T12:14:16;30.23;;;11.13;;
76693;SDS011;65625;52.136;5.424;2023-02-22T12:16:59;32.25;;;11.32;;
76693;SDS011;65625;52.136;5.424;2023-02-22T12:23:02;29.65;;;10.68;;
76693;SDS011;65625;52.136;5.424;2023-02-22T12:26:27;29.38;;;12.38;;
76693;SDS011;65625;52.136;5.424;2023-02-22T12:28:33;31.73;;;11.57;;
76693;SDS011;65625;52.136;5.424;2023-02-22T12:33:59;29.52;;;11.10;;
76693;SDS011;65625;52.136;5.424;2023-02-22T12:36:37;31.52;;;11.98;;
76693;SDS011;65625;52.136;5.424;2023-02-22T12:39:23;30.13;;;11.40;;
76693;SDS011;65625;52.136;5.424;2023-02-22T12:41:55;34.45;;;12.77;;
76693;SDS011;65625;52.136;5.424;2023-02-22T12:44:27;28.70;;;11.07;;
76693;SDS011;65625;52.136;5.424;2023-02-22T12:46:58;29.95;;;11.25;;
76693;SDS011;65625;52.136;5.424;2023-02-22T12:52:13;27.10;;;10.60;;
76693;SDS011;65625;52.136;5.424;2023-02-22T12:54:58;29.10;;;11.45;;
76693;SDS011;65625;52.136;5.424;2023-02-22T13:09:04;24.52;;;10.13;;
76693;SDS011;65625;52.136;5.424;2023-02-22T13:16:59;33.20;;;11.95;;
76693;SDS011;65625;52.136;5.424;2023-02-22T13:19:36;27.83;;;11.43;;
76693;SDS011;65625;52.136;5.424;2023-02-22T13:22:33;26.25;;;11.23;;
76693;SDS011;65625;52.136;5.424;2023-02-22T13:30:39;26.88;;;10.65;;
76693;SDS011;65625;52.136;5.424;2023-02-22T13:36:20;31.15;;;11.45;;
76693;SDS011;65625;52.136;5.424;2023-02-22T13:47:18;27.38;;;11.07;;
76693;SDS011;65625;52.136;5.424;2023-02-22T13:52:53;30.95;;;11.30;;
76693;SDS011;65625;52.136;5.424;2023-02-22T13:55:23;28.60;;;11.13;;
76693;SDS011;65625;52.136;5.424;2023-02-22T13:57:59;24.77;;;11.55;;
76693;SDS011;65625;52.136;5.424;2023-02-22T14:13:08;27.35;;;11.07;;
76693;SDS011;65625;52.136;5.424;2023-02-22T14:15:35;23.83;;;10.63;;
76693;SDS011;65625;52.136;5.424;2023-02-22T14:18:28;23.40;;;10.52;;
76693;SDS011;65625;52.136;5.424;2023-02-22T14:21:09;24.52;;;11.02;;
76693;SDS011;65625;52.136;5.424;2023-02-22T14:28:58;24.73;;;11.02;;
76693;SDS011;65625;52.136;5.424;2023-02-22T14:34:07;25.38;;;11.32;;
76693;SDS011;65625;52.136;5.424;2023-02-22T14:39:24;24.65;;;11.25;;
76693;SDS011;65625;52.136;5.424;2023-02-22T14:41:58;26.90;;;10.82;;
76693;SDS011;65625;52.136;5.424;2023-02-22T14:44:33;25.05;;;10.82;;
76693;SDS011;65625;52.136;5.424;2023-02-22T14:47:05;21.38;;;11.05;;
76693;SDS011;65625;52.136;5.424;2023-02-22T14:49:40;22.30;;;11.52;;
76693;SDS011;65625;52.136;5.424;2023-02-22T14:52:14;23.52;;;10.80;;
76693;SDS011;65625;52.136;5.424;2023-02-22T14:57:26;22.45;;;10.00;;
76693;SDS011;65625;52.136;5.424;2023-02-22T15:00:05;22.00;;;10.30;;
76693;SDS011;65625;52.136;5.424;2023-02-22T15:02:46;19.35;;;10.30;;
76693;SDS011;65625;52.136;5.424;2023-02-22T15:05:14;20.77;;;9.65;;
76693;SDS011;65625;52.136;5.424;2023-02-22T15:07:58;21.80;;;9.40;;
76693;SDS011;65625;52.136;5.424;2023-02-22T15:10:28;20.67;;;9.55;;
76693;SDS011;65625;52.136;5.424;2023-02-22T15:12:58;25.75;;;10.77;;
76693;SDS011;65625;52.136;5.424;2023-02-22T15:15:35;19.70;;;9.30;;
76693;SDS011;65625;52.136;5.424;2023-02-22T15:18:03;21.65;;;10.25;;
76693;SDS011;65625;52.136;5.424;2023-02-22T15:20:39;22.92;;;10.20;;
76693;SDS011;65625;52.136;5.424;2023-02-22T15:23:06;21.50;;;10.02;;
76693;SDS011;65625;52.136;5.424;2023-02-22T15:25:33;22.45;;;9.52;;
76693;SDS011;65625;52.136;5.424;2023-02-22T15:28:03;20.85;;;9.80;;
76693;SDS011;65625;52.136;5.424;2023-02-22T15:30:31;20.83;;;9.73;;
76693;SDS011;65625;52.136;5.424;2023-02-22T15:33:11;19.90;;;10.65;;
76693;SDS011;65625;52.136;5.424;2023-02-22T15:35:42;20.95;;;10.07;;
76693;SDS011;65625;52.136;5.424;2023-02-22T15:40:36;25.13;;;10.68;;
76693;SDS011;65625;52.136;5.424;2023-02-22T15:43:15;20.48;;;10.98;;
76693;SDS011;65625;52.136;5.424;2023-02-22T15:45:50;20.60;;;11.18;;
76693;SDS011;65625;52.136;5.424;2023-02-22T15:48:17;21.40;;;9.93;;
76693;SDS011;65625;52.136;5.424;2023-02-22T15:51:03;18.63;;;10.05;;
76693;SDS011;65625;52.136;5.424;2023-02-22T15:53:34;21.17;;;10.60;;
76693;SDS011;65625;52.136;5.424;2023-02-22T15:56:26;25.33;;;11.50;;
76693;SDS011;65625;52.136;5.424;2023-02-22T15:58:59;19.45;;;10.27;;
76693;SDS011;65625;52.136;5.424;2023-02-22T16:01:35;21.63;;;10.80;;
76693;SDS011;65625;52.136;5.424;2023-02-22T16:04:14;20.85;;;10.05;;
76693;SDS011;65625;52.136;5.424;2023-02-22T16:06:43;21.25;;;10.35;;
76693;SDS011;65625;52.136;5.424;2023-02-22T16:09:11;21.08;;;10.65;;
76693;SDS011;65625;52.136;5.424;2023-02-22T16:19:58;23.70;;;10.80;;
76693;SDS011;65625;52.136;5.424;2023-02-22T16:27:42;22.98;;;10.88;;
76693;SDS011;65625;52.136;5.424;2023-02-22T16:32:51;22.60;;;11.65;;
76693;SDS011;65625;52.136;5.424;2023-02-22T16:35:19;21.15;;;11.75;;
76693;SDS011;65625;52.136;5.424;2023-02-22T16:37:47;22.42;;;11.38;;
76693;SDS011;65625;52.136;5.424;2023-02-22T16:40:22;27.15;;;12.15;;
76693;SDS011;65625;52.136;5.424;2023-02-22T16:42:51;21.48;;;11.50;;
76693;SDS011;65625;52.136;5.424;2023-02-22T16:45:18;25.02;;;12.52;;
76693;SDS011;65625;52.136;5.424;2023-02-22T16:47:45;23.75;;;12.00;;
76693;SDS011;65625;52.136;5.424;2023-02-22T16:50:15;24.23;;;12.23;;
76693;SDS011;65625;52.136;5.424;2023-02-22T16:52:45;22.63;;;11.90;;
76693;SDS011;65625;52.136;5.424;2023-02-22T16:55:14;22.88;;;12.75;;
76693;SDS011;65625;52.136;5.424;2023-02-22T16:57:43;20.38;;;11.70;;
76693;SDS011;65625;52.136;5.424;2023-02-22T17:00:14;20.25;;;11.95;;
76693;SDS011;65625;52.136;5.424;2023-02-22T17:02:42;24.70;;;11.98;;
76693;SDS011;65625;52.136;5.424;2023-02-22T17:05:13;23.80;;;13.23;;
76693;SDS011;65625;52.136;5.424;2023-02-22T17:07:41;22.80;;;12.30;;
76693;SDS011;65625;52.136;5.424;2023-02-22T17:10:13;25.35;;;12.45;;
76693;SDS011;65625;52.136;5.424;2023-02-22T17:12:44;24.30;;;12.20;;
76693;SDS011;65625;52.136;5.424;2023-02-22T17:17:44;23.27;;;12.30;;
76693;SDS011;65625;52.136;5.424;2023-02-22T17:20:10;23.20;;;12.93;;
76693;SDS011;65625;52.136;5.424;2023-02-22T17:22:37;26.10;;;13.05;;
76693;SDS011;65625;52.136;5.424;2023-02-22T17:25:21;26.65;;;13.65;;
76693;SDS011;65625;52.136;5.424;2023-02-22T17:27:50;25.95;;;13.02;;
76693;SDS011;65625;52.136;5.424;2023-02-22T17:30:17;29.27;;;15.30;;
76693;SDS011;65625;52.136;5.424;2023-02-22T17:32:49;28.65;;;14.80;;
76693;SDS011;65625;52.136;5.424;2023-02-22T17:35:17;27.27;;;14.23;;